Time;durP1;ratioP1;P1;durP2;ratioP2;P2;SDS_P1;SDS_P2;PMS_P1;PMS_P2;Temp;Humidity;BMP_temperature;BMP_pressure;BME280_temperature;BME280_humidity;BME280_pressure;Samples;Min_cycle;Max_cycle;Signal;HPM_P1;HPM_P2
2023/05/31 00:02:12;;;;;;;5.07;2.63;;;19.30;1.00;;;;;;5003718;28;20185;-75
2023/05/31 00:04:38;;;;;;;4.57;2.53;;;19.30;1.00;;;;;;5011357;28;20445;-74
2023/05/31 00:07:05;;;;;;;6.97;3.43;;;19.30;1.00;;;;;;5011191;28;20479;-75
2023/05/31 00:09:30;;;;;;;8.63;2.50;;;19.20;1.00;;;;;;5011896;28;20616;-75
2023/05/31 00:11:56;;;;;;;4.80;2.40;;;19.20;1.00;;;;;;5009841;28;20521;-75
2023/05/31 00:14:21;;;;;;;5.77;3.07;;;19.20;1.00;;;;;;5011408;28;20221;-74
2023/05/31 00:16:47;;;;;;;9.53;2.53;;;19.20;1.00;;;;;;5010900;28;20664;-76
2023/05/31 00:19:12;;;;;;;11.47;3.20;;;19.20;1.00;;;;;;5010034;28;20553;-75
2023/05/31 00:21:38;;;;;;;5.13;2.53;;;19.20;1.00;;;;;;5011372;28;20197;-75
2023/05/31 00:24:04;;;;;;;5.33;2.60;;;19.20;1.00;;;;;;5010125;28;20256;-75
2023/05/31 00:26:29;;;;;;;5.50;2.50;;;19.20;1.00;;;;;;5011256;28;20737;-75
2023/05/31 00:28:55;;;;;;;6.00;2.80;;;19.20;1.00;;;;;;5010987;28;20645;-75
2023/05/31 00:31:20;;;;;;;8.77;2.83;;;19.20;1.00;;;;;;5011064;28;20190;-75
2023/05/31 00:33:46;;;;;;;5.67;2.57;;;19.20;1.00;;;;;;5010890;28;20193;-75
2023/05/31 00:36:11;;;;;;;5.53;2.90;;;19.10;1.00;;;;;;5009662;28;20221;-75
2023/05/31 00:38:37;;;;;;;5.70;2.70;;;19.10;1.00;;;;;;5010936;28;20189;-76
2023/05/31 00:41:02;;;;;;;7.50;2.80;;;19.10;1.00;;;;;;5010325;28;20190;-75
2023/05/31 00:43:28;;;;;;;4.10;2.40;;;19.10;1.00;;;;;;5010845;28;20194;-75
2023/05/31 00:45:54;;;;;;;4.93;2.57;;;19.10;1.00;;;;;;5010455;28;20213;-74
2023/05/31 00:48:20;;;;;;;7.20;2.47;;;19.10;1.00;;;;;;5010740;28;20174;-75
2023/05/31 00:50:45;;;;;;;10.10;2.70;;;19.10;1.00;;;;;;5010800;28;20421;-75
2023/05/31 00:53:11;;;;;;;5.97;2.40;;;19.00;1.00;;;;;;5010450;28;20530;-75
2023/05/31 00:55:37;;;;;;;10.37;2.70;;;19.00;1.00;;;;;;5010377;28;20216;-75
2023/05/31 00:58:03;;;;;;;9.30;2.70;;;19.00;1.00;;;;;;5008698;28;20533;-75
2023/05/31 01:00:30;;;;;;;5.60;2.80;;;19.00;1.00;;;;;;5010652;28;20185;-75
2023/05/31 01:02:55;;;;;;;7.73;2.67;;;19.00;1.00;;;;;;5010231;28;20178;-75
2023/05/31 01:05:21;;;;;;;5.37;2.80;;;19.00;1.00;;;;;;5010452;28;20445;-75
2023/05/31 01:07:46;;;;;;;8.07;3.10;;;19.00;1.00;;;;;;5010393;28;20197;-75
2023/05/31 01:10:13;;;;;;;5.37;2.43;;;18.90;1.00;;;;;;5010118;28;20336;-76
2023/05/31 01:13:03;;;;;;;5.33;2.63;;;18.90;1.00;;;;;;5010539;28;20182;-75
2023/05/31 01:15:38;;;;;;;5.73;2.57;;;19.00;1.00;;;;;;5004103;28;20560;-75
2023/05/31 01:18:25;;;;;;;4.90;2.80;;;18.90;1.00;;;;;;5010085;28;20840;-75
2023/05/31 01:20:53;;;;;;;11.23;3.00;;;18.90;1.00;;;;;;5010390;28;20429;-75
2023/05/31 01:24:00;;;;;;;8.73;3.07;;;18.90;1.00;;;;;;5008937;28;20846;-74
2023/05/31 01:26:45;;;;;;;7.77;3.00;;;18.90;1.00;;;;;;5003917;28;20532;-75
2023/05/31 01:29:17;;;;;;;8.13;3.00;;;18.90;1.00;;;;;;5008718;28;21009;-75
2023/05/31 01:31:45;;;;;;;6.80;2.97;;;18.90;1.00;;;;;;5010169;28;20471;-75
2023/05/31 01:34:12;;;;;;;3.47;2.33;;;18.80;1.00;;;;;;5009514;28;20428;-75
2023/05/31 01:36:38;;;;;;;8.30;2.90;;;18.80;1.00;;;;;;5008644;28;20991;-74
2023/05/31 01:39:05;;;;;;;5.10;2.33;;;18.80;1.00;;;;;;5009940;28;20437;-76
2023/05/31 01:41:35;;;;;;;5.50;2.80;;;18.90;1.00;;;;;;5009688;28;20186;-75
2023/05/31 01:44:01;;;;;;;5.43;2.47;;;18.90;1.00;;;;;;5009913;28;20827;-75
2023/05/31 01:46:27;;;;;;;4.80;2.50;;;18.90;1.00;;;;;;5010059;28;20556;-75
2023/05/31 01:48:53;;;;;;;10.63;2.80;;;18.90;1.00;;;;;;5009781;28;20272;-76
2023/05/31 01:51:20;;;;;;;5.77;2.90;;;18.90;1.00;;;;;;5009997;28;20553;-75
2023/05/31 01:53:45;;;;;;;5.63;3.00;;;18.90;1.00;;;;;;5008939;28;20784;-75
2023/05/31 01:56:11;;;;;;;5.13;2.90;;;19.00;1.00;;;;;;5007863;28;20469;-76
2023/05/31 01:58:44;;;;;;;6.40;2.60;;;18.90;1.00;;;;;;5010006;28;20193;-75
2023/05/31 02:01:11;;;;;;;4.27;2.40;;;18.90;1.00;;;;;;5009695;28;20413;-75
2023/05/31 02:03:40;;;;;;;6.50;2.60;;;18.80;1.00;;;;;;5004329;28;20421;-75
2023/05/31 02:06:06;;;;;;;4.23;2.50;;;18.80;1.00;;;;;;5009603;28;20441;-74
2023/05/31 02:08:32;;;;;;;20.23;2.80;;;18.80;1.00;;;;;;5009611;28;20433;-75
2023/05/31 02:10:57;;;;;;;7.73;3.67;;;18.70;1.00;;;;;;5008297;28;20190;-74
2023/05/31 02:13:27;;;;;;;6.50;2.63;;;18.70;1.00;;;;;;5009836;28;20189;-75
2023/05/31 02:15:54;;;;;;;5.50;2.43;;;18.70;1.00;;;;;;5008505;28;20494;-75
2023/05/31 02:18:21;;;;;;;7.70;3.07;;;21.80;1.00;;;;;;5008380;28;20443;-75
2023/05/31 02:20:47;;;;;;;4.50;2.70;;;18.60;1.00;;;;;;5009844;28;20516;-75
2023/05/31 02:23:12;;;;;;;5.67;2.53;;;18.60;1.00;;;;;;5009338;28;20421;-75
2023/05/31 02:25:38;;;;;;;4.70;2.47;;;18.50;1.00;;;;;;5008392;28;20211;-75
2023/05/31 02:28:04;;;;;;;8.50;2.70;;;18.50;1.00;;;;;;5009330;28;20193;-75
2023/05/31 02:30:31;;;;;;;8.13;3.00;;;18.50;1.00;;;;;;5009755;28;20193;-75
2023/05/31 02:32:56;;;;;;;5.37;3.00;;;18.50;1.00;;;;;;5009334;28;20269;-74
2023/05/31 02:35:22;;;;;;;5.80;2.40;;;18.50;1.00;;;;;;5009530;28;20610;-75
2023/05/31 02:37:47;;;;;;;6.60;3.07;;;18.50;1.00;;;;;;5009348;28;20193;-75
2023/05/31 02:40:13;;;;;;;8.87;2.50;;;18.50;1.00;;;;;;5009427;28;20205;-75
2023/05/31 02:42:41;;;;;;;5.70;2.67;;;18.40;1.00;;;;;;5008359;28;20872;-75
2023/05/31 02:45:10;;;;;;;5.30;2.70;;;18.40;1.00;;;;;;5007924;28;20301;-74
2023/05/31 02:47:37;;;;;;;5.67;2.83;;;18.40;1.00;;;;;;5011701;28;20433;-75
2023/05/31 02:50:05;;;;;;;4.33;2.30;;;18.40;1.00;;;;;;5012859;28;20756;-74
2023/05/31 02:52:30;;;;;;;5.03;2.93;;;18.30;1.00;;;;;;5012840;28;20433;-75
2023/05/31 02:54:56;;;;;;;5.40;2.90;;;18.30;1.00;;;;;;5012773;28;20461;-75
2023/05/31 02:57:21;;;;;;;6.00;2.67;;;18.20;1.00;;;;;;5004634;28;20546;-76
2023/05/31 02:59:49;;;;;;;5.03;2.87;;;18.20;1.00;;;;;;5012978;28;20698;-75
2023/05/31 03:02:14;;;;;;;5.13;2.57;;;18.20;1.00;;;;;;5012418;28;20233;-75
2023/05/31 03:04:41;;;;;;;5.93;2.80;;;18.20;1.00;;;;;;5012183;28;20449;-75
2023/05/31 03:07:07;;;;;;;5.70;2.80;;;18.20;1.00;;;;;;5012240;28;20178;-75
2023/05/31 03:09:33;;;;;;;7.63;3.03;;;18.20;1.00;;;;;;5012781;28;20422;-75
2023/05/31 03:11:58;;;;;;;3.87;2.50;;;18.20;1.00;;;;;;5012457;28;20193;-74
2023/05/31 03:14:24;;;;;;;4.80;2.60;;;18.20;1.00;;;;;;5012605;28;20680;-75
2023/05/31 03:16:50;;;;;;;6.47;3.20;;;18.10;1.00;;;;;;5012550;28;20217;-74
2023/05/31 03:19:15;;;;;;;7.23;2.70;;;18.10;1.00;;;;;;5012359;28;20182;-75
2023/05/31 03:21:41;;;;;;;6.40;2.67;;;18.10;1.00;;;;;;5012319;28;20182;-75
2023/05/31 03:24:06;;;;;;;3.70;2.40;;;18.10;1.00;;;;;;5012000;28;20179;-75
2023/05/31 03:26:32;;;;;;;3.63;2.57;;;18.10;1.00;;;;;;5012339;28;20206;-75
2023/05/31 03:28:57;;;;;;;7.63;2.70;;;18.10;1.00;;;;;;5011023;28;20273;-75
2023/05/31 03:31:23;;;;;;;7.03;3.03;;;18.00;1.00;;;;;;5010526;28;20197;-75
2023/05/31 03:33:50;;;;;;;5.77;2.60;;;18.00;1.00;;;;;;5012222;28;20561;-76
2023/05/31 03:36:16;;;;;;;3.90;2.47;;;18.00;1.00;;;;;;5011551;28;20210;-74
2023/05/31 03:38:42;;;;;;;5.93;2.90;;;18.00;1.00;;;;;;5012213;28;20425;-75
2023/05/31 03:41:07;;;;;;;6.07;2.90;;;18.00;1.00;;;;;;5011844;28;20197;-74
2023/05/31 03:43:33;;;;;;;6.40;2.70;;;17.90;1.00;;;;;;5010789;28;20229;-75
2023/05/31 03:46:01;;;;;;;6.17;3.17;;;18.00;1.00;;;;;;5012785;28;20661;-75
2023/05/31 03:48:29;;;;;;;6.33;3.00;;;17.90;1.00;;;;;;5012469;28;20210;-75
2023/05/31 03:50:56;;;;;;;3.57;2.70;;;17.90;1.00;;;;;;5012454;28;20430;-75
2023/05/31 03:53:22;;;;;;;7.70;3.00;;;17.90;1.00;;;;;;5011936;28;20449;-74
2023/05/31 03:55:47;;;;;;;5.03;2.90;;;17.90;1.00;;;;;;5011415;28;20879;-75
2023/05/31 03:58:13;;;;;;;4.47;2.80;;;17.90;1.00;;;;;;5010285;28;20692;-75
2023/05/31 04:00:41;;;;;;;5.93;2.40;;;17.90;1.00;;;;;;5012424;28;20187;-75
2023/05/31 04:03:06;;;;;;;5.60;3.20;;;17.90;1.00;;;;;;5011620;28;20526;-75
2023/05/31 04:05:32;;;;;;;7.27;2.70;;;17.90;1.00;;;;;;5011980;28;20529;-75
2023/05/31 04:07:59;;;;;;;6.40;3.03;;;17.90;1.00;;;;;;5012040;28;20202;-75
2023/05/31 04:10:24;;;;;;;6.30;2.57;;;17.90;1.00;;;;;;5012038;28;20174;-74
2023/05/31 04:12:50;;;;;;;9.10;2.90;;;19.30;1.00;;;;;;5012000;28;20425;-75
2023/05/31 04:15:15;;;;;;;6.87;3.00;;;18.00;1.00;;;;;;5011528;28;20214;-75
2023/05/31 04:17:41;;;;;;;5.67;2.73;;;18.00;1.00;;;;;;5011668;28;20206;-75
2023/05/31 04:20:07;;;;;;;5.00;2.60;;;18.00;1.00;;;;;;5011539;28;20273;-75
2023/05/31 04:22:34;;;;;;;7.80;3.17;;;18.00;1.00;;;;;;5011904;28;20182;-75
2023/05/31 04:25:01;;;;;;;4.73;2.60;;;18.00;1.00;;;;;;5011954;28;20523;-74
2023/05/31 04:27:27;;;;;;;5.63;2.90;;;18.00;1.00;;;;;;5011483;28;20436;-75
2023/05/31 04:29:57;;;;;;;8.40;3.00;;;18.60;1.00;;;;;;5012353;28;20432;-75
2023/05/31 04:32:22;;;;;;;6.23;2.67;;;18.00;1.00;;;;;;5011645;28;20442;-75
2023/05/31 04:34:48;;;;;;;5.20;2.80;;;18.10;1.00;;;;;;5011428;28;20821;-75
2023/05/31 04:37:14;;;;;;;4.80;2.70;;;18.20;1.00;;;;;;5011220;28;20178;-74
2023/05/31 04:39:40;;;;;;;4.10;2.93;;;18.10;1.00;;;;;;5011723;28;20938;-75
2023/05/31 04:42:09;;;;;;;8.10;3.30;;;18.10;1.00;;;;;;5011345;28;20178;-74
2023/05/31 04:44:36;;;;;;;11.03;3.10;;;18.10;1.00;;;;;;5010072;28;20641;-74
2023/05/31 04:47:02;;;;;;;4.47;2.40;;;18.10;1.00;;;;;;5011195;28;20426;-75
2023/05/31 04:49:27;;;;;;;5.80;3.13;;;18.10;1.00;;;;;;5011203;28;20491;-75
2023/05/31 04:51:53;;;;;;;5.27;2.67;;;18.20;1.00;;;;;;5011433;28;20593;-75
2023/05/31 04:54:18;;;;;;;5.77;2.90;;;18.20;1.00;;;;;;5009580;28;20182;-75
2023/05/31 04:56:44;;;;;;;4.80;2.80;;;18.20;1.00;;;;;;5007810;28;20186;-74
2023/05/31 04:59:09;;;;;;;5.40;3.00;;;18.20;1.00;;;;;;5011007;28;20221;-74
2023/05/31 05:01:35;;;;;;;5.83;3.13;;;18.20;1.00;;;;;;5010952;28;20186;-75
2023/05/31 05:04:01;;;;;;;4.97;2.93;;;18.20;1.00;;;;;;5011254;28;20209;-75
2023/05/31 05:06:27;;;;;;;6.03;2.90;;;18.20;1.00;;;;;;5010618;28;20198;-75
2023/05/31 05:08:53;;;;;;;4.70;2.63;;;18.30;1.00;;;;;;5009661;28;20193;-75
2023/05/31 05:11:18;;;;;;;4.47;3.20;;;18.30;1.00;;;;;;5010769;28;20920;-75
2023/05/31 05:13:44;;;;;;;5.77;3.20;;;18.30;1.00;;;;;;5011029;28;20257;-75
2023/05/31 05:16:09;;;;;;;6.43;3.13;;;18.30;1.00;;;;;;5009041;28;20221;-75
2023/05/31 05:18:36;;;;;;;5.37;2.93;;;18.40;1.00;;;;;;5010846;28;20604;-75
2023/05/31 05:21:01;;;;;;;8.43;3.00;;;18.40;1.00;;;;;;5010910;28;20189;-75
2023/05/31 05:23:27;;;;;;;6.03;3.33;;;18.30;1.00;;;;;;5010446;28;20420;-75
2023/05/31 05:25:52;;;;;;;4.40;2.80;;;18.40;1.00;;;;;;5009318;28;20206;-74
2023/05/31 05:28:18;;;;;;;8.80;3.00;;;18.50;1.00;;;;;;5010186;28;20687;-75
2023/05/31 05:30:44;;;;;;;5.50;2.97;;;18.50;1.00;;;;;;5010545;28;20182;-75
2023/05/31 05:33:10;;;;;;;4.90;2.97;;;18.50;1.00;;;;;;5010320;28;20268;-74
2023/05/31 05:35:35;;;;;;;5.23;2.77;;;18.60;1.00;;;;;;5009155;28;20552;-75
2023/05/31 05:38:01;;;;;;;7.20;3.70;;;18.60;1.00;;;;;;5010326;28;20585;-75
2023/05/31 05:40:26;;;;;;;5.10;2.77;;;18.70;1.00;;;;;;5010376;28;20199;-74
2023/05/31 05:42:53;;;;;;;4.60;2.87;;;18.70;1.00;;;;;;5010636;28;20260;-75
2023/05/31 05:45:19;;;;;;;6.10;2.87;;;18.70;1.00;;;;;;5009978;28;20301;-75
2023/05/31 05:47:44;;;;;;;7.30;3.40;;;18.80;1.00;;;;;;5009946;28;20500;-76
2023/05/31 05:50:11;;;;;;;10.20;2.83;;;18.90;1.00;;;;;;5009827;28;20236;-74
2023/05/31 05:52:38;;;;;;;4.00;2.80;;;18.90;1.00;;;;;;5010065;28;20669;-75
2023/05/31 05:55:04;;;;;;;7.07;3.00;;;19.00;1.00;;;;;;5010058;28;20468;-75
2023/05/31 05:57:30;;;;;;;6.37;2.83;;;19.10;1.00;;;;;;5004674;28;20946;-75
2023/05/31 05:59:56;;;;;;;6.50;2.93;;;19.20;1.00;;;;;;5008673;28;20218;-75
2023/05/31 06:02:22;;;;;;;5.43;3.03;;;19.20;1.00;;;;;;5009460;28;20265;-75
2023/05/31 06:04:49;;;;;;;5.10;3.00;;;19.30;1.00;;;;;;5009689;28;20563;-75
2023/05/31 06:07:15;;;;;;;5.43;2.80;;;19.30;1.00;;;;;;5009492;28;20189;-75
2023/05/31 06:09:41;;;;;;;8.23;3.33;;;19.40;1.00;;;;;;5008769;28;20433;-75
2023/05/31 06:12:07;;;;;;;4.13;2.60;;;19.50;1.00;;;;;;5009924;28;20954;-75
2023/05/31 06:14:33;;;;;;;7.83;2.97;;;19.60;1.00;;;;;;5009490;28;20186;-74
2023/05/31 06:16:58;;;;;;;9.47;3.60;;;19.70;1.00;;;;;;5008419;28;20433;-75
2023/05/31 06:19:24;;;;;;;5.43;2.60;;;19.90;1.00;;;;;;5009572;28;20186;-74
2023/05/31 06:21:50;;;;;;;7.10;3.10;;;19.80;1.00;;;;;;5010802;28;20552;-75
2023/05/31 06:24:15;;;;;;;5.90;3.13;;;20.00;1.00;;;;;;5013184;28;20580;-74
2023/05/31 06:26:41;;;;;;;4.47;3.07;;;20.00;1.00;;;;;;5013419;28;20178;-74
2023/05/31 06:29:07;;;;;;;7.40;3.67;;;20.00;1.00;;;;;;5013886;28;20425;-75
2023/05/31 06:31:35;;;;;;;7.00;3.00;;;20.10;1.00;;;;;;5012076;28;20430;-75
2023/05/31 06:34:01;;;;;;;6.73;2.83;;;20.20;1.00;;;;;;5013239;28;20425;-76
2023/05/31 06:36:26;;;;;;;7.87;3.07;;;20.40;1.00;;;;;;5012762;28;20491;-75
2023/05/31 06:38:52;;;;;;;4.60;2.60;;;20.40;1.00;;;;;;5013339;28;20261;-76
2023/05/31 06:41:17;;;;;;;6.37;3.07;;;20.50;1.00;;;;;;5012879;28;20397;-76
2023/05/31 06:43:43;;;;;;;7.40;3.10;;;20.50;1.00;;;;;;5013076;28;20186;-75
2023/05/31 06:46:11;;;;;;;5.30;2.77;;;20.50;1.00;;;;;;5012984;28;20241;-76
2023/05/31 06:48:37;;;;;;;12.37;3.17;;;20.50;1.00;;;;;;5005261;28;20209;-76
2023/05/31 06:51:02;;;;;;;4.90;3.10;;;20.60;1.00;;;;;;5012985;28;20413;-75
2023/05/31 06:53:28;;;;;;;6.50;3.03;;;20.70;1.00;;;;;;5012671;28;20252;-75
2023/05/31 06:55:53;;;;;;;6.20;2.93;;;20.80;1.00;;;;;;5011304;28;20220;-75
2023/05/31 06:58:19;;;;;;;31.83;3.83;;;20.90;1.00;;;;;;5012262;28;20186;-75
2023/05/31 07:00:45;;;;;;;11.00;3.37;;;21.00;1.00;;;;;;5012495;28;20205;-75
2023/05/31 07:03:10;;;;;;;5.40;2.83;;;21.20;1.00;;;;;;5012712;28;20182;-75
2023/05/31 07:05:36;;;;;;;5.87;3.30;;;21.30;1.00;;;;;;5004520;28;20264;-75
2023/05/31 07:08:01;;;;;;;5.20;2.77;;;21.40;1.00;;;;;;5012675;28;20236;-75
2023/05/31 07:10:27;;;;;;;6.20;3.13;;;21.60;1.00;;;;;;5012455;28;20190;-75
2023/05/31 07:12:53;;;;;;;12.27;2.93;;;22.10;1.00;;;;;;5011119;28;20654;-76
2023/05/31 07:15:19;;;;;;;7.27;3.00;;;21.90;1.00;;;;;;5012197;28;20308;-76
2023/05/31 07:17:45;;;;;;;6.33;3.10;;;22.00;1.00;;;;;;5012670;28;20526;-76
2023/05/31 07:20:11;;;;;;;10.90;3.47;;;22.20;1.00;;;;;;5012565;28;20185;-76
2023/05/31 07:22:37;;;;;;;9.27;3.63;;;22.30;1.00;;;;;;5012561;28;20173;-75
2023/05/31 07:25:03;;;;;;;6.50;3.00;;;20.80;1.00;;;;;;5012367;28;20973;-75
2023/05/31 07:27:30;;;;;;;9.33;2.77;;;22.50;1.00;;;;;;5011643;28;20248;-76
2023/05/31 07:29:55;;;;;;;5.50;2.97;;;22.70;1.00;;;;;;5012496;28;20429;-76
2023/05/31 07:32:21;;;;;;;7.87;3.23;;;22.80;1.00;;;;;;5011326;28;20442;-76
2023/05/31 07:34:47;;;;;;;8.87;3.07;;;23.00;1.00;;;;;;5012046;28;20220;-76
2023/05/31 07:37:13;;;;;;;4.83;2.90;;;23.20;1.00;;;;;;5012165;28;20190;-75
2023/05/31 07:39:38;;;;;;;6.37;3.10;;;23.40;1.00;;;;;;5004212;28;20237;-76
2023/05/31 07:42:04;;;;;;;5.93;2.93;;;23.80;1.00;;;;;;5011694;28;20178;-75
2023/05/31 07:44:30;;;;;;;15.30;3.00;;;23.90;1.00;;;;;;5011507;28;20193;-76
2023/05/31 07:46:56;;;;;;;6.93;3.33;;;24.40;1.00;;;;;;5010671;28;20210;-75
2023/05/31 07:49:22;;;;;;;6.97;3.10;;;;;;;;;;5011996;28;20233;-75
2023/05/31 07:51:47;;;;;;;7.33;3.07;;;24.30;1.00;;;;;;5011887;28;20186;-75
2023/05/31 07:54:13;;;;;;;7.53;3.20;;;24.40;1.00;;;;;;5011854;28;20181;-76
2023/05/31 07:56:39;;;;;;;6.40;2.93;;;24.50;1.00;;;;;;5010748;28;20221;-77
2023/05/31 07:59:06;;;;;;;6.10;3.03;;;24.50;1.00;;;;;;5011930;28;20177;-75
2023/05/31 08:01:32;;;;;;;6.20;3.13;;;24.70;1.00;;;;;;5011243;28;20508;-76
2023/05/31 08:04:06;;;;;;;7.10;3.10;;;24.90;1.00;;;;;;5010228;28;20429;-76
2023/05/31 08:06:32;;;;;;;5.97;2.70;;;25.80;1.00;;;;;;5011261;28;20737;-76
2023/05/31 08:08:58;;;;;;;10.43;3.33;;;25.20;1.00;;;;;;5011286;28;20512;-76
2023/05/31 08:11:25;;;;;;;6.30;2.90;;;25.40;1.00;;;;;;5011349;28;20930;-76
2023/05/31 08:13:51;;;;;;;5.30;3.07;;;25.40;1.00;;;;;;5010180;28;20433;-76
2023/05/31 08:16:17;;;;;;;7.13;2.87;;;25.40;1.00;;;;;;5010982;28;20475;-75
2023/05/31 08:18:43;;;;;;;7.03;3.00;;;25.30;1.00;;;;;;5011525;28;20184;-76
2023/05/31 08:21:08;;;;;;;6.60;3.30;;;25.40;1.00;;;;;;5011389;28;20511;-76
2023/05/31 08:23:34;;;;;;;4.83;2.73;;;25.50;1.00;;;;;;5010848;28;20508;-75
2023/05/31 08:25:59;;;;;;;4.80;3.03;;;25.60;1.00;;;;;;5011350;28;20221;-76
2023/05/31 08:28:25;;;;;;;5.57;2.93;;;25.90;1.00;;;;;;5010849;28;20181;-76
2023/05/31 08:30:50;;;;;;;4.50;2.60;;;25.90;1.00;;;;;;5011308;28;20190;-76
2023/05/31 08:33:16;;;;;;;7.20;3.20;;;25.90;1.00;;;;;;5010986;28;20181;-75
2023/05/31 08:35:41;;;;;;;4.80;2.70;;;26.00;1.00;;;;;;5003388;28;20742;-75
2023/05/31 08:38:07;;;;;;;4.50;2.70;;;26.20;1.00;;;;;;5010786;28;20178;-76
2023/05/31 08:40:32;;;;;;;7.43;2.83;;;26.30;1.00;;;;;;5010774;28;20182;-76
2023/05/31 08:43:20;;;;;;;6.27;3.13;;;26.50;1.00;;;;;;5010865;28;20651;-76
2023/05/31 08:45:46;;;;;;;6.20;2.57;;;26.90;1.00;;;;;;5010152;28;20589;-76
2023/05/31 08:48:27;;;;;;;9.50;3.03;;;27.10;1.00;;;;;;5010797;28;20244;-76
2023/05/31 08:50:55;;;;;;;5.03;2.90;;;27.10;1.00;;;;;;5004304;28;20576;-76
2023/05/31 08:53:26;;;;;;;8.97;3.67;;;27.10;1.00;;;;;;5010465;28;20264;-75
2023/05/31 08:55:55;;;;;;;8.80;3.03;;;27.30;1.00;;;;;;5009295;28;20206;-76
2023/05/31 08:58:21;;;;;;;6.90;3.10;;;27.60;1.00;;;;;;5007319;28;20292;-75
2023/05/31 09:00:48;;;;;;;6.33;3.00;;;28.30;1.00;;;;;;5009348;28;20192;-76
2023/05/31 09:03:14;;;;;;;4.83;2.67;;;29.10;1.00;;;;;;5009964;28;20189;-76
2023/05/31 09:05:40;;;;;;;7.78;2.88;;;30.20;1.00;;;;;;5010622;28;20539;-76
2023/05/31 09:08:06;;;;;;;7.93;3.10;;;30.80;1.00;;;;;;5010345;28;20665;-76
2023/05/31 09:10:31;;;;;;;6.20;3.00;;;31.60;1.00;;;;;;5010259;28;20186;-76
2023/05/31 09:12:57;;;;;;;6.80;3.05;;;32.10;1.00;;;;;;5010471;28;20178;-77
2023/05/31 09:15:24;;;;;;;5.20;2.88;;;32.50;1.00;;;;;;5009881;28;20232;-76
2023/05/31 09:17:50;;;;;;;4.05;2.80;;;33.60;1.00;;;;;;5010167;28;20281;-76
2023/05/31 09:20:18;;;;;;;3.97;2.83;;;34.40;1.00;;;;;;5010524;28;20178;-76
2023/05/31 09:22:48;;;;;;;4.72;3.15;;;35.00;1.00;;;;;;5010003;28;20281;-77
2023/05/31 09:25:14;;;;;;;8.90;3.00;;;35.70;1.00;;;;;;5010318;28;20202;-77
2023/05/31 09:27:40;;;;;;;7.93;2.80;;;36.00;1.00;;;;;;5009878;28;20271;-77
2023/05/31 09:30:11;;;;;;;6.63;3.47;;;35.90;1.00;;;;;;5009950;28;20186;-77
2023/05/31 09:32:37;;;;;;;9.13;3.15;;;35.90;1.00;;;;;;5008230;28;20182;-76
2023/05/31 09:35:13;;;;;;;5.95;2.70;;;36.30;1.00;;;;;;5010032;28;20304;-77
2023/05/31 09:37:44;;;;;;;9.75;3.08;;;36.90;1.00;;;;;;5009771;28;20211;-77
2023/05/31 09:40:12;;;;;;;6.85;2.70;;;37.40;1.00;;;;;;5008994;28;20185;-77
2023/05/31 09:42:38;;;;;;;5.20;2.70;;;37.70;1.00;;;;;;5009710;28;20178;-77
2023/05/31 09:45:04;;;;;;;4.63;3.08;;;37.70;1.00;;;;;;5009833;28;20293;-77
2023/05/31 09:47:30;;;;;;;5.05;2.47;;;36.90;1.00;;;;;;5010512;28;20190;-77
2023/05/31 09:49:56;;;;;;;5.40;3.03;;;36.80;1.00;;;;;;5009961;28;20212;-77
2023/05/31 09:52:31;;;;;;;4.97;2.53;;;;;;;;;;5009842;28;20190;-76
2023/05/31 09:54:57;;;;;;;18.10;2.78;;;36.90;1.00;;;;;;5009952;28;20267;-77
2023/05/31 09:57:39;;;;;;;6.43;2.80;;;36.70;1.00;;;;;;5007708;28;20173;-76
2023/05/31 10:00:16;;;;;;;4.10;2.63;;;37.30;1.00;;;;;;5014176;28;20247;-77
2023/05/31 10:02:46;;;;;;;8.43;2.65;;;37.50;1.00;;;;;;5012257;28;20675;-77
2023/05/31 10:05:13;;;;;;;4.75;2.80;;;38.00;1.00;;;;;;5013853;28;20205;-77
2023/05/31 10:07:42;;;;;;;6.68;2.92;;;38.20;1.00;;;;;;5013440;28;20608;-77
2023/05/31 10:10:09;;;;;;;6.20;2.58;;;38.70;1.00;;;;;;5013955;28;20193;-77
2023/05/31 10:12:57;;;;;;;11.75;3.03;;;39.20;1.00;;;;;;5012180;28;20656;-77
2023/05/31 10:15:24;;;;;;;5.28;2.75;;;39.40;1.00;;;;;;5013263;28;20532;-76
2023/05/31 10:18:02;;;;;;;6.18;2.70;;;39.40;1.00;;;;;;5013730;28;20174;-77
2023/05/31 10:20:43;;;;;;;4.22;2.60;;;38.90;1.00;;;;;;5012166;28;20188;-77
2023/05/31 10:23:21;;;;;;;5.63;2.67;;;39.30;1.00;;;;;;5013868;28;20272;-77
2023/05/31 10:26:08;;;;;;;6.28;2.45;;;39.70;1.00;;;;;;5013737;28;20202;-77
2023/05/31 10:28:54;;;;;;;5.13;2.55;;;39.80;1.00;;;;;;5012962;28;20185;-75
2023/05/31 10:31:22;;;;;;;8.13;3.20;;;40.10;1.00;;;;;;5013727;28;20182;-75
2023/05/31 10:33:53;;;;;;;4.88;2.58;;;39.60;1.00;;;;;;5005308;28;20182;-75
2023/05/31 10:36:19;;;;;;;4.95;2.45;;;39.10;1.00;;;;;;5013328;28;20217;-75
2023/05/31 10:38:52;;;;;;;5.88;2.75;;;38.90;1.00;;;;;;5013060;28;20182;-75
2023/05/31 10:41:23;;;;;;;6.63;2.70;;;39.10;1.00;;;;;;5013227;28;20182;-75
2023/05/31 10:43:57;;;;;;;14.55;2.78;;;39.00;1.00;;;;;;5013316;28;20174;-75
2023/05/31 10:46:28;;;;;;;6.13;2.55;;;38.60;1.00;;;;;;5012944;28;20208;-75
2023/05/31 10:48:58;;;;;;;3.95;2.53;;;39.20;1.00;;;;;;5013192;28;20188;-75
2023/05/31 10:51:42;;;;;;;7.50;2.47;;;39.50;1.00;;;;;;5013000;28;20236;-75
2023/05/31 10:54:08;;;;;;;6.43;2.65;;;39.30;1.00;;;;;;5007470;28;20644;-76
2023/05/31 10:56:38;;;;;;;7.35;2.85;;;39.20;1.00;;;;;;5010885;28;20217;-75
2023/05/31 10:59:04;;;;;;;4.97;2.70;;;39.50;1.00;;;;;;5013158;28;20174;-75
2023/05/31 11:01:30;;;;;;;8.60;2.70;;;39.70;1.00;;;;;;5012133;28;20256;-74
2023/05/31 11:03:57;;;;;;;5.70;2.60;;;40.50;1.00;;;;;;5012688;28;20236;-76
2023/05/31 11:06:32;;;;;;;5.15;2.70;;;40.90;1.00;;;;;;5012834;28;20572;-75
2023/05/31 11:08:59;;;;;;;7.07;2.80;;;41.20;1.00;;;;;;5004929;28;20189;-75
2023/05/31 11:11:28;;;;;;;6.60;2.92;;;40.80;1.00;;;;;;5012590;28;20185;-75
2023/05/31 11:14:03;;;;;;;8.60;3.08;;;41.00;1.00;;;;;;5005150;28;20261;-75
2023/05/31 11:16:34;;;;;;;5.18;2.85;;;41.10;1.00;;;;;;5010739;28;20217;-74
2023/05/31 11:19:06;;;;;;;6.20;3.00;;;41.50;1.00;;;;;;5012571;28;20239;-76
2023/05/31 11:21:55;;;;;;;6.68;3.10;;;41.90;1.00;;;;;;5012120;28;20178;-75
2023/05/31 11:24:37;;;;;;;5.75;3.08;;;41.20;1.00;;;;;;5012369;28;20182;-75
2023/05/31 11:27:05;;;;;;;5.57;2.58;;;41.30;1.00;;;;;;5011345;28;20174;-75
2023/05/31 11:29:53;;;;;;;5.07;2.67;;;41.70;1.00;;;;;;5010818;28;20185;-75
2023/05/31 11:32:42;;;;;;;6.57;2.72;;;42.20;1.00;;;;;;5012183;28;20209;-75
2023/05/31 11:35:14;;;;;;;5.40;2.83;;;42.30;1.00;;;;;;5012505;28;20212;-75
2023/05/31 11:37:40;;;;;;;5.20;2.55;;;42.10;1.00;;;;;;5012027;28;20257;-75
2023/05/31 11:40:12;;;;;;;3.88;2.28;;;41.90;1.00;;;;;;5012026;28;20648;-75
2023/05/31 11:42:42;;;;;;;4.40;2.58;;;41.90;1.00;;;;;;5011848;28;20189;-75
2023/05/31 11:45:13;;;;;;;10.27;2.78;;;42.80;1.00;;;;;;5010459;28;20399;-75
2023/05/31 11:48:20;;;;;;;5.35;3.20;;;42.60;1.00;;;;;;5011499;28;20185;-75
2023/05/31 11:50:45;;;;;;;4.63;2.75;;;42.50;1.00;;;;;;5011019;28;20197;-75
2023/05/31 11:53:12;;;;;;;5.55;2.85;;;42.50;1.00;;;;;;5011985;28;20239;-75
2023/05/31 11:55:37;;;;;;;3.65;2.38;;;42.80;1.00;;;;;;5011407;28;20292;-76
2023/05/31 11:58:08;;;;;;;5.22;2.30;;;43.00;1.00;;;;;;5005202;28;20174;-76
2023/05/31 12:00:34;;;;;;;4.90;2.38;;;43.00;1.00;;;;;;5011602;28;20191;-75
2023/05/31 12:03:04;;;;;;;12.20;2.70;;;43.00;1.00;;;;;;5011696;28;20228;-75
2023/05/31 12:05:30;;;;;;;4.68;2.60;;;41.70;1.00;;;;;;5011176;28;20209;-74
2023/05/31 12:07:56;;;;;;;3.60;2.20;;;41.50;1.00;;;;;;5011583;28;20718;-75
2023/05/31 12:10:26;;;;;;;6.18;2.75;;;40.90;1.00;;;;;;5011660;28;20189;-75
2023/05/31 12:12:52;;;;;;;5.80;2.47;;;40.60;1.00;;;;;;5011136;28;20227;-75
2023/05/31 12:15:17;;;;;;;5.97;2.50;;;39.50;1.00;;;;;;5010045;28;20219;-75
2023/05/31 12:17:43;;;;;;;5.13;2.80;;;38.90;1.00;;;;;;5011255;28;20667;-75
2023/05/31 12:20:12;;;;;;;7.07;2.47;;;40.00;1.00;;;;;;5011521;28;20182;-75
2023/05/31 12:22:38;;;;;;;4.25;2.50;;;40.60;1.00;;;;;;5011104;28;20178;-75
2023/05/31 12:25:04;;;;;;;5.00;2.78;;;41.40;1.00;;;;;;5011212;28;20201;-75
2023/05/31 12:27:30;;;;;;;5.85;2.30;;;41.50;1.00;;;;;;5010979;28;20186;-75
2023/05/31 12:29:56;;;;;;;7.15;2.70;;;41.90;1.00;;;;;;5002041;28;20182;-75
2023/05/31 12:32:27;;;;;;;4.45;2.20;;;41.60;1.00;;;;;;5010978;28;20204;-75
2023/05/31 12:35:02;;;;;;;4.50;2.50;;;40.30;1.00;;;;;;5010938;28;20237;-75
2023/05/31 12:37:27;;;;;;;7.00;2.42;;;40.20;1.00;;;;;;5010961;28;20224;-75
2023/05/31 12:40:11;;;;;;;4.10;2.50;;;39.80;1.00;;;;;;5010664;28;20209;-75
2023/05/31 12:42:37;;;;;;;6.53;2.50;;;39.80;1.00;;;;;;5010760;28;20247;-75
2023/05/31 12:45:10;;;;;;;5.28;2.60;;;40.20;1.00;;;;;;5010956;28;20217;-75
2023/05/31 12:47:36;;;;;;;5.72;2.70;;;40.10;1.00;;;;;;5010424;28;20192;-74
2023/05/31 12:50:05;;;;;;;11.20;2.60;;;40.20;1.00;;;;;;5011460;28;20186;-75
2023/05/31 12:52:33;;;;;;;5.20;2.70;;;39.80;1.00;;;;;;5010692;28;20186;-75
2023/05/31 12:54:59;;;;;;;4.35;2.40;;;41.00;1.00;;;;;;5010557;28;20206;-75
2023/05/31 12:57:25;;;;;;;4.50;2.65;;;41.00;1.00;;;;;;5010029;28;20665;-75
2023/05/31 12:59:57;;;;;;;7.68;2.70;;;41.20;1.00;;;;;;5009117;28;20217;-75
2023/05/31 13:02:23;;;;;;;7.65;2.42;;;41.30;1.00;;;;;;5010610;28;20182;-75